Time;durP1;ratioP1;P1;durP2;ratioP2;P2;SDS_P1;SDS_P2;PMS_P1;PMS_P2;Temp;Humidity;BMP_temperature;BMP_pressure;BME280_temperature;BME280_humidity;BME280_pressure;Samples;Min_cycle;Max_cycle;Signal;HPM_P1;HPM_P2
2024/02/20 00:02:18;;;;;;;33.53;4.47;;;6.40;99.90;;;;;;4992256;28;20060;-74
2024/02/20 00:04:45;;;;;;;36.55;5.43;;;6.40;99.90;;;;;;4995029;28;20232;-73
2024/02/20 00:07:11;;;;;;;38.90;5.40;;;6.40;99.90;;;;;;4995775;28;20047;-73
2024/02/20 00:09:38;;;;;;;30.60;5.18;;;6.50;99.90;;;;;;4995126;28;20029;-74
2024/02/20 00:12:05;;;;;;;35.28;5.13;;;6.40;99.90;;;;;;4988282;28;20044;-74
2024/02/20 00:14:32;;;;;;;27.75;4.07;;;6.40;99.90;;;;;;4986128;28;20033;-74
2024/02/20 00:16:58;;;;;;;33.28;4.35;;;6.40;99.90;;;;;;4990495;28;20037;-74
2024/02/20 00:19:24;;;;;;;36.25;4.13;;;6.40;99.90;;;;;;4990519;28;20036;-74
2024/02/20 00:21:51;;;;;;;29.83;4.35;;;6.40;99.90;;;;;;4956370;28;20030;-74
2024/02/20 00:24:17;;;;;;;30.10;4.32;;;6.40;99.90;;;;;;4986215;28;20408;-74
2024/02/20 00:26:44;;;;;;;25.80;3.97;;;6.40;99.90;;;;;;4997623;28;20060;-74
2024/02/20 00:29:10;;;;;;;25.58;3.95;;;6.40;99.90;;;;;;4997063;28;20049;-74
2024/02/20 00:31:37;;;;;;;42.70;4.70;;;6.40;99.90;;;;;;4993782;28;20852;-74
2024/02/20 00:34:03;;;;;;;31.67;4.80;;;6.40;99.90;;;;;;4954720;28;20080;-75
2024/02/20 00:36:30;;;;;;;30.77;4.32;;;6.40;99.90;;;;;;4973554;28;20056;-74
2024/02/20 00:38:56;;;;;;;32.42;4.38;;;6.40;99.90;;;;;;4988911;28;20727;-74
2024/02/20 00:41:24;;;;;;;25.60;2.95;;;6.40;99.90;;;;;;4991038;28;20037;-74
2024/02/20 00:43:50;;;;;;;31.13;4.03;;;6.40;99.90;;;;;;4986416;28;20038;-74
2024/02/20 00:46:20;;;;;;;25.75;4.05;;;6.40;99.90;;;;;;4991665;28;20033;-73
2024/02/20 00:48:50;;;;;;;33.40;5.05;;;6.30;99.90;;;;;;4997285;28;20048;-74
2024/02/20 00:51:19;;;;;;;30.98;4.40;;;6.40;99.90;;;;;;4996525;28;20134;-73
2024/02/20 00:53:46;;;;;;;31.55;4.00;;;6.30;99.90;;;;;;4989808;28;20046;-74
2024/02/20 00:56:12;;;;;;;25.02;3.78;;;6.30;99.90;;;;;;4971455;28;20053;-74
2024/02/20 00:58:39;;;;;;;31.52;4.65;;;6.30;99.90;;;;;;4989281;28;20033;-74
2024/02/20 01:01:10;;;;;;;19.58;3.42;;;6.30;99.90;;;;;;4988729;28;20025;-74
2024/02/20 01:03:42;;;;;;;23.65;3.70;;;6.30;99.90;;;;;;4988665;28;20053;-74
2024/02/20 01:06:10;;;;;;;28.08;4.82;;;6.20;99.90;;;;;;4959714;28;20037;-74
2024/02/20 01:08:37;;;;;;;29.13;4.43;;;6.20;99.90;;;;;;4991477;28;20041;-74
2024/02/20 01:11:03;;;;;;;32.78;5.13;;;6.20;99.90;;;;;;4965607;28;20876;-74
2024/02/20 01:13:30;;;;;;;30.75;4.97;;;6.20;99.90;;;;;;4981183;28;20037;-75
2024/02/20 01:15:57;;;;;;;31.73;4.32;;;6.20;99.90;;;;;;4974375;28;20028;-73
2024/02/20 01:18:25;;;;;;;31.13;4.32;;;6.20;99.90;;;;;;4990906;28;20049;-74
2024/02/20 01:20:52;;;;;;;42.10;5.80;;;6.20;99.90;;;;;;4972833;28;20043;-75
2024/02/20 01:23:19;;;;;;;33.90;4.65;;;6.20;99.90;;;;;;4973777;28;20628;-75
2024/02/20 01:25:46;;;;;;;36.08;4.60;;;6.20;99.90;;;;;;4989053;28;20044;-75
2024/02/20 01:28:12;;;;;;;51.03;5.88;;;6.20;99.90;;;;;;4971616;28;20029;-74
2024/02/20 01:30:41;;;;;;;35.40;4.25;;;6.20;99.90;;;;;;4970518;28;20467;-75
2024/02/20 01:33:07;;;;;;;34.40;4.35;;;6.20;99.90;;;;;;4991239;28;20037;-74
2024/02/20 01:35:34;;;;;;;33.40;4.53;;;6.20;99.90;;;;;;5029328;28;20028;-74
2024/02/20 01:38:01;;;;;;;29.63;4.10;;;6.20;99.90;;;;;;4963010;28;20052;-74
2024/02/20 01:40:27;;;;;;;25.48;3.95;;;6.20;99.90;;;;;;4993299;28;20751;-74
2024/02/20 01:43:03;;;;;;;36.92;4.20;;;6.20;99.90;;;;;;4986592;28;20037;-74
2024/02/20 01:45:34;;;;;;;41.42;5.30;;;6.30;99.90;;;;;;4985640;28;20048;-74
2024/02/20 01:48:03;;;;;;;24.65;3.95;;;6.30;99.90;;;;;;4969791;28;20055;-74
2024/02/20 01:50:35;;;;;;;32.88;3.80;;;6.30;99.90;;;;;;4967294;28;20047;-72
2024/02/20 01:53:02;;;;;;;21.13;3.05;;;6.30;99.90;;;;;;4989002;28;20032;-73
2024/02/20 01:55:29;;;;;;;33.75;4.72;;;6.40;99.90;;;;;;4989711;28;20037;-73
2024/02/20 01:57:56;;;;;;;25.45;3.40;;;6.40;99.90;;;;;;4998616;28;20032;-73
2024/02/20 02:00:23;;;;;;;22.52;3.38;;;6.40;99.90;;;;;;4980387;28;20058;-74
2024/02/20 02:02:50;;;;;;;35.75;5.40;;;6.40;99.90;;;;;;5017691;28;20057;-73
2024/02/20 02:05:16;;;;;;;33.65;4.45;;;6.40;99.90;;;;;;4976734;28;21110;-73
2024/02/20 02:07:43;;;;;;;38.60;4.18;;;6.40;99.90;;;;;;4992673;28;20411;-73
2024/02/20 02:10:09;;;;;;;34.65;5.32;;;6.40;99.90;;;;;;4990964;28;20832;-74
2024/02/20 02:12:36;;;;;;;43.20;4.82;;;6.40;99.90;;;;;;4974883;28;20041;-74
2024/02/20 02:15:02;;;;;;;31.13;4.30;;;6.40;99.90;;;;;;4971854;28;20032;-73
2024/02/20 02:17:30;;;;;;;24.63;4.15;;;6.40;99.90;;;;;;4975226;28;20033;-75
2024/02/20 02:19:56;;;;;;;34.22;4.40;;;6.40;99.90;;;;;;4992582;28;20393;-74
2024/02/20 02:22:23;;;;;;;30.83;3.55;;;6.30;99.90;;;;;;4991187;28;20025;-74
2024/02/20 02:24:49;;;;;;;25.77;4.00;;;6.40;99.90;;;;;;5000368;28;20040;-74
2024/02/20 02:27:15;;;;;;;30.52;3.65;;;6.40;99.90;;;;;;4981470;28;20052;-74
2024/02/20 02:29:45;;;;;;;28.02;4.65;;;6.30;99.90;;;;;;4995173;28;20045;-74
2024/02/20 02:32:11;;;;;;;33.33;4.32;;;6.30;99.90;;;;;;4989294;28;20684;-73
2024/02/20 02:34:37;;;;;;;37.38;4.78;;;6.30;99.90;;;;;;4985702;28;20041;-73
2024/02/20 02:37:04;;;;;;;33.30;4.25;;;6.30;99.90;;;;;;4991944;28;20060;-73
2024/02/20 02:39:30;;;;;;;40.22;4.95;;;6.40;99.90;;;;;;4975867;28;20049;-74
2024/02/20 02:41:56;;;;;;;35.38;4.47;;;6.40;99.90;;;;;;4993027;28;20395;-74
2024/02/20 02:44:23;;;;;;;29.48;3.70;;;6.40;99.90;;;;;;4975272;28;20037;-74
2024/02/20 02:46:50;;;;;;;29.52;3.97;;;6.40;99.90;;;;;;4979349;28;20037;-74
2024/02/20 02:49:16;;;;;;;24.05;3.50;;;6.40;99.90;;;;;;4972881;28;20350;-74
2024/02/20 02:51:42;;;;;;;27.00;3.72;;;6.40;99.90;;;;;;5001194;28;20029;-74
2024/02/20 02:54:09;;;;;;;24.85;3.63;;;6.40;99.90;;;;;;4974612;28;20384;-73
2024/02/20 02:56:36;;;;;;;28.05;3.70;;;6.40;99.90;;;;;;4987617;28;20029;-73
2024/02/20 02:59:04;;;;;;;22.60;3.28;;;6.40;99.90;;;;;;4972622;28;20025;-74
2024/02/20 03:01:30;;;;;;;42.17;4.20;;;6.40;99.90;;;;;;4972266;28;20025;-74
2024/02/20 03:03:57;;;;;;;30.42;3.90;;;6.40;99.90;;;;;;4984667;28;20144;-73
2024/02/20 03:06:24;;;;;;;25.50;3.35;;;6.40;99.90;;;;;;4989341;28;20037;-73
2024/02/20 03:08:50;;;;;;;42.65;5.28;;;6.40;99.90;;;;;;4995317;28;20025;-74
2024/02/20 03:11:17;;;;;;;37.67;4.60;;;6.40;99.90;;;;;;4982919;28;20056;-74
2024/02/20 03:13:45;;;;;;;25.88;3.88;;;6.40;99.90;;;;;;4994622;28;20022;-74
2024/02/20 03:16:11;;;;;;;18.98;3.05;;;6.40;99.90;;;;;;4975192;28;20048;-75
2024/02/20 03:18:38;;;;;;;27.58;4.50;;;6.40;99.90;;;;;;4992808;28;20368;-74
2024/02/20 03:21:06;;;;;;;31.48;4.68;;;6.40;99.90;;;;;;5004216;28;20038;-73
2024/02/20 03:23:33;;;;;;;35.65;4.70;;;6.40;99.90;;;;;;4954961;28;20140;-75
2024/02/20 03:26:01;;;;;;;26.90;3.50;;;6.40;99.90;;;;;;4989844;28;20049;-75
2024/02/20 03:28:30;;;;;;;28.55;4.28;;;6.40;99.90;;;;;;4988128;28;20652;-74
2024/02/20 03:30:57;;;;;;;27.45;3.08;;;6.40;99.90;;;;;;4973034;28;20044;-73
2024/02/20 03:33:25;;;;;;;37.40;3.90;;;6.40;99.90;;;;;;4980244;28;20041;-73
2024/02/20 03:35:52;;;;;;;22.63;3.42;;;6.40;99.90;;;;;;4997181;28;20029;-74
2024/02/20 03:38:20;;;;;;;19.83;2.40;;;6.40;99.90;;;;;;4999457;28;20021;-74
2024/02/20 03:40:46;;;;;;;29.13;3.78;;;6.40;99.90;;;;;;4974748;28;20619;-73
2024/02/20 03:43:13;;;;;;;25.25;3.42;;;6.40;99.90;;;;;;4987540;28;20479;-74
2024/02/20 03:45:39;;;;;;;24.42;3.53;;;6.40;99.90;;;;;;4987633;28;20410;-74
2024/02/20 03:48:06;;;;;;;21.75;2.90;;;6.40;99.90;;;;;;4990264;28;20516;-74
2024/02/20 03:50:33;;;;;;;16.67;2.50;;;6.40;99.90;;;;;;5022193;28;20033;-73
2024/02/20 03:53:02;;;;;;;19.25;2.70;;;6.40;99.90;;;;;;4986846;28;20037;-74
2024/02/20 03:55:28;;;;;;;23.75;2.53;;;6.40;99.90;;;;;;4989705;28;20492;-74
2024/02/20 03:57:56;;;;;;;17.02;2.97;;;6.40;99.90;;;;;;4994780;28;20046;-73
2024/02/20 04:00:24;;;;;;;17.27;2.70;;;6.40;99.90;;;;;;4995038;28;20029;-74
2024/02/20 04:02:53;;;;;;;22.52;2.80;;;6.40;99.90;;;;;;4993044;28;20384;-73
2024/02/20 04:05:20;;;;;;;17.77;2.33;;;6.30;99.90;;;;;;4985980;28;20044;-74
2024/02/20 04:07:46;;;;;;;17.67;2.83;;;6.30;99.90;;;;;;4969950;28;20088;-73
2024/02/20 04:10:14;;;;;;;18.60;2.60;;;6.30;99.90;;;;;;4987118;28;20049;-73
2024/02/20 04:12:44;;;;;;;20.92;2.30;;;6.30;99.90;;;;;;4968628;28;20038;-73
2024/02/20 04:15:12;;;;;;;13.30;2.00;;;6.30;99.90;;;;;;4986740;28;20384;-74
2024/02/20 04:17:39;;;;;;;14.63;1.73;;;6.20;99.90;;;;;;4987532;28;20045;-74
2024/02/20 04:20:08;;;;;;;16.88;2.30;;;6.20;99.90;;;;;;4991193;28;20399;-74
2024/02/20 04:22:39;;;;;;;13.27;2.10;;;6.20;99.90;;;;;;4997503;28;20040;-75
2024/02/20 04:25:06;;;;;;;20.40;2.65;;;6.20;99.90;;;;;;5008771;28;20044;-74
2024/02/20 04:27:33;;;;;;;15.15;2.65;;;6.10;99.90;;;;;;4993726;28;20037;-73
2024/02/20 04:30:00;;;;;;;13.95;2.42;;;6.10;99.90;;;;;;4969338;28;20408;-74
2024/02/20 04:32:26;;;;;;;15.70;2.95;;;6.10;99.90;;;;;;5018091;28;20739;-73
2024/02/20 04:34:53;;;;;;;16.90;2.80;;;6.00;99.90;;;;;;4985384;28;20045;-73
2024/02/20 04:37:19;;;;;;;13.75;2.08;;;6.00;99.90;;;;;;4987312;28;20021;-73
2024/02/20 04:39:46;;;;;;;17.73;2.88;;;6.00;99.90;;;;;;4986082;28;20026;-73
2024/02/20 04:42:12;;;;;;;23.00;3.15;;;6.00;99.90;;;;;;4970222;28;20044;-73
2024/02/20 04:44:39;;;;;;;13.32;2.72;;;6.00;99.90;;;;;;5022868;28;20045;-74
2024/02/20 04:47:08;;;;;;;19.17;2.75;;;6.00;99.90;;;;;;4981701;28;20037;-74
2024/02/20 04:49:34;;;;;;;13.85;2.13;;;6.00;99.90;;;;;;4994056;28;20037;-74
2024/02/20 04:52:01;;;;;;;11.00;2.53;;;6.00;99.90;;;;;;4987942;28;20368;-74
2024/02/20 04:54:27;;;;;;;17.92;3.80;;;6.00;99.90;;;;;;4981538;28;20412;-73
2024/02/20 04:56:54;;;;;;;16.00;3.10;;;6.00;99.90;;;;;;4984216;28;20033;-73
2024/02/20 04:59:20;;;;;;;10.75;2.83;;;6.00;99.90;;;;;;4967695;28;20045;-73
2024/02/20 05:01:48;;;;;;;12.20;2.72;;;6.00;99.90;;;;;;4970329;28;20451;-74
2024/02/20 05:04:14;;;;;;;18.60;3.65;;;6.00;99.90;;;;;;4987640;28;20739;-74
2024/02/20 05:06:41;;;;;;;17.27;4.30;;;6.00;99.90;;;;;;5002438;28;20037;-73
2024/02/20 05:09:08;;;;;;;16.08;4.13;;;6.00;99.90;;;;;;5021896;28;20662;-74
2024/02/20 05:11:34;;;;;;;19.55;5.13;;;6.00;99.90;;;;;;5010836;28;20480;-73
2024/02/20 05:14:01;;;;;;;15.88;4.13;;;6.00;99.90;;;;;;4978629;28;20034;-74
2024/02/20 05:16:28;;;;;;;28.67;5.35;;;6.00;99.90;;;;;;4976082;28;20033;-73
2024/02/20 05:18:54;;;;;;;17.75;4.65;;;6.00;99.90;;;;;;4988427;28;20354;-73
2024/02/20 05:21:20;;;;;;;20.23;5.65;;;6.00;99.90;;;;;;4987822;28;20034;-73
2024/02/20 05:23:47;;;;;;;17.33;5.22;;;6.00;99.90;;;;;;4969562;28;20044;-74
2024/02/20 05:26:13;;;;;;;14.70;5.65;;;6.00;99.90;;;;;;4988894;28;20377;-74
2024/02/20 05:28:39;;;;;;;17.35;5.53;;;5.90;99.90;;;;;;4969003;28;20423;-73
2024/02/20 05:31:28;;;;;;;18.85;5.20;;;6.00;99.90;;;;;;4953790;28;20052;-74
2024/02/20 05:34:01;;;;;;;18.67;4.90;;;6.00;99.90;;;;;;5004953;28;20041;-73
2024/02/20 05:36:33;;;;;;;19.48;4.82;;;6.00;99.90;;;;;;4993013;28;20045;-74
2024/02/20 05:39:00;;;;;;;15.90;5.87;;;6.00;99.90;;;;;;5009385;28;20037;-74
2024/02/20 05:41:28;;;;;;;20.35;6.43;;;5.90;99.90;;;;;;4992790;28;20032;-74
2024/02/20 05:43:59;;;;;;;20.70;6.05;;;6.00;99.90;;;;;;4983272;28;20655;-73
2024/02/20 05:46:27;;;;;;;20.73;6.40;;;6.00;99.90;;;;;;4985033;28;20096;-73
2024/02/20 05:48:54;;;;;;;17.08;6.55;;;6.00;99.90;;;;;;4988233;28;20040;-73
2024/02/20 05:51:21;;;;;;;19.95;5.95;;;6.00;99.90;;;;;;4986604;28;20041;-74
2024/02/20 05:53:47;;;;;;;23.27;6.82;;;6.00;99.90;;;;;;4983962;28;20038;-74
2024/02/20 05:56:14;;;;;;;27.55;7.10;;;6.00;99.90;;;;;;4969677;28;20061;-74
2024/02/20 05:58:41;;;;;;;21.65;5.32;;;6.10;99.90;;;;;;4988521;28;20601;-74
2024/02/20 06:01:08;;;;;;;17.63;5.93;;;6.10;99.90;;;;;;4997156;28;20025;-73
2024/02/20 06:03:36;;;;;;;28.20;8.55;;;6.10;99.90;;;;;;4995505;28;20025;-74
2024/02/20 06:06:06;;;;;;;24.20;7.50;;;6.10;99.90;;;;;;4962242;28;20041;-74
2024/02/20 06:08:40;;;;;;;25.15;7.60;;;6.10;99.90;;;;;;4987788;28;20038;-74
2024/02/20 06:11:10;;;;;;;27.88;7.10;;;6.20;99.90;;;;;;4969063;28;20033;-73
2024/02/20 06:13:37;;;;;;;27.80;7.75;;;6.10;99.90;;;;;;4984201;28;20035;-74
2024/02/20 06:16:03;;;;;;;29.50;7.53;;;6.20;99.90;;;;;;4969880;28;20042;-73
2024/02/20 06:18:30;;;;;;;27.70;7.38;;;6.20;99.90;;;;;;4969902;28;20408;-73
2024/02/20 06:20:56;;;;;;;25.00;7.53;;;6.20;99.90;;;;;;4982453;28;20034;-73
2024/02/20 06:23:22;;;;;;;24.25;6.65;;;6.20;99.90;;;;;;4985780;28;20048;-74
2024/02/20 06:25:49;;;;;;;19.30;5.63;;;6.20;99.90;;;;;;4995918;28;20285;-74
2024/02/20 06:28:17;;;;;;;19.13;6.38;;;6.20;99.90;;;;;;4982109;28;20041;-73
2024/02/20 06:30:43;;;;;;;26.48;6.63;;;6.20;99.90;;;;;;4975907;28;20037;-74
2024/02/20 06:33:10;;;;;;;23.23;6.40;;;6.20;99.90;;;;;;4972927;28;20041;-73
2024/02/20 06:35:36;;;;;;;24.00;5.78;;;6.20;99.90;;;;;;4989841;28;20520;-73
2024/02/20 06:38:02;;;;;;;17.88;5.38;;;6.20;99.90;;;;;;4989829;28;20485;-73
2024/02/20 06:40:29;;;;;;;18.08;5.32;;;6.20;99.90;;;;;;4988169;28;20332;-73
2024/02/20 06:42:55;;;;;;;18.23;5.55;;;6.20;99.90;;;;;;4972891;28;20400;-73
2024/02/20 06:45:22;;;;;;;18.67;5.32;;;6.20;99.90;;;;;;4988043;28;20381;-73
2024/02/20 06:47:48;;;;;;;20.33;5.90;;;6.20;99.90;;;;;;4980838;28;20068;-73
2024/02/20 06:50:14;;;;;;;16.80;5.70;;;6.20;99.90;;;;;;4980818;28;20169;-73
2024/02/20 06:52:43;;;;;;;20.98;5.95;;;6.20;99.90;;;;;;4992920;28;20444;-72
2024/02/20 06:55:10;;;;;;;22.33;7.03;;;6.20;99.90;;;;;;4986054;28;20333;-73
2024/02/20 06:57:39;;;;;;;19.83;6.72;;;6.20;99.90;;;;;;4987374;28;20041;-73
2024/02/20 07:00:11;;;;;;;22.20;7.22;;;6.10;99.90;;;;;;4956908;28;20360;-73
2024/02/20 07:02:42;;;;;;;20.40;7.03;;;6.10;99.90;;;;;;4972882;28;20397;-72
2024/02/20 07:05:10;;;;;;;12.90;4.97;;;6.10;99.90;;;;;;5005102;28;20045;-73
2024/02/20 07:07:37;;;;;;;21.98;6.85;;;6.10;99.90;;;;;;4972625;28;20473;-73
2024/02/20 07:10:04;;;;;;;17.80;7.20;;;6.10;99.90;;;;;;4996583;28;20040;-73
2024/02/20 07:12:31;;;;;;;28.25;8.35;;;6.10;99.90;;;;;;4983275;28;20029;-73
2024/02/20 07:14:57;;;;;;;17.13;6.35;;;6.10;99.90;;;;;;5013748;28;20543;-73
2024/02/20 07:17:24;;;;;;;21.88;7.38;;;6.00;99.90;;;;;;4991147;28;20049;-73
2024/02/20 07:19:50;;;;;;;20.83;6.38;;;6.00;99.90;;;;;;4971548;28;20038;-73
2024/02/20 07:22:16;;;;;;;24.33;6.88;;;6.10;99.90;;;;;;4970716;28;20048;-73
2024/02/20 07:24:43;;;;;;;26.92;7.82;;;6.10;99.90;;;;;;4985909;28;20919;-73
2024/02/20 07:27:09;;;;;;;23.73;7.80;;;6.10;99.90;;;;;;4989677;28;20037;-73
2024/02/20 07:29:40;;;;;;;33.88;9.05;;;6.10;99.90;;;;;;4970172;28;20041;-73
2024/02/20 07:32:08;;;;;;;32.85;8.88;;;6.20;99.90;;;;;;5008000;28;20501;-73
2024/02/20 07:34:35;;;;;;;21.38;9.05;;;6.20;99.90;;;;;;4990095;28;20065;-73
2024/02/20 07:37:02;;;;;;;39.03;10.43;;;6.30;99.90;;;;;;4990320;28;20026;-73
2024/02/20 07:39:28;;;;;;;30.05;10.32;;;6.30;99.90;;;;;;4986527;28;20492;-73
2024/02/20 07:41:54;;;;;;;27.58;9.35;;;6.40;99.90;;;;;;5003977;28;20025;-73
2024/02/20 07:44:20;;;;;;;28.88;9.85;;;6.40;99.90;;;;;;4972869;28;20029;-73
2024/02/20 07:46:47;;;;;;;29.75;10.48;;;6.50;99.90;;;;;;4988105;28;20040;-73
2024/02/20 07:49:14;;;;;;;32.65;9.82;;;6.60;99.90;;;;;;4972720;28;20040;-73
2024/02/20 07:51:40;;;;;;;30.30;9.90;;;6.70;99.90;;;;;;4991417;28;20493;-74
2024/02/20 07:54:07;;;;;;;30.23;10.63;;;6.80;99.90;;;;;;4958584;28;20029;-74
2024/02/20 07:56:33;;;;;;;28.33;9.25;;;6.80;99.90;;;;;;4981417;28;20055;-73
2024/02/20 07:59:00;;;;;;;26.63;10.27;;;6.90;99.90;;;;;;4960116;28;20491;-73
2024/02/20 08:01:26;;;;;;;39.20;11.93;;;6.90;99.90;;;;;;4974372;28;21860;-73
2024/02/20 08:03:53;;;;;;;29.38;11.30;;;7.00;99.90;;;;;;4970979;28;20037;-74
2024/02/20 08:06:21;;;;;;;26.65;9.88;;;7.10;99.90;;;;;;4987630;28;20095;-75
2024/02/20 08:08:48;;;;;;;25.92;9.80;;;7.10;99.90;;;;;;4972929;28;20038;-76
2024/02/20 08:11:15;;;;;;;24.95;9.85;;;7.20;99.90;;;;;;4985472;28;21494;-74
2024/02/20 08:13:46;;;;;;;29.75;11.40;;;7.30;99.90;;;;;;4967676;28;20407;-73
2024/02/20 08:16:13;;;;;;;35.05;12.40;;;7.30;99.90;;;;;;4952753;28;20029;-74
2024/02/20 08:18:40;;;;;;;33.72;11.77;;;7.30;99.90;;;;;;4993719;28;20033;-75
2024/02/20 08:21:10;;;;;;;40.08;13.63;;;7.40;99.90;;;;;;4984000;28;20436;-73
2024/02/20 08:23:38;;;;;;;32.25;12.35;;;7.40;99.90;;;;;;5004110;28;20130;-73
2024/02/20 08:26:05;;;;;;;32.58;12.95;;;7.50;99.90;;;;;;4988871;28;20037;-74
2024/02/20 08:28:31;;;;;;;29.05;12.70;;;7.50;99.90;;;;;;4983658;28;20503;-73
2024/02/20 08:30:59;;;;;;;24.27;10.93;;;7.60;99.90;;;;;;4988838;28;20129;-74
2024/02/20 08:33:26;;;;;;;36.80;12.95;;;7.60;99.90;;;;;;4973424;28;20040;-74
2024/02/20 08:35:56;;;;;;;43.95;14.52;;;7.60;99.90;;;;;;4971385;28;20033;-73
2024/02/20 08:38:23;;;;;;;30.40;11.60;;;7.70;99.90;;;;;;4974152;28;20029;-74
2024/02/20 08:40:49;;;;;;;32.60;12.98;;;7.70;99.90;;;;;;4987323;28;20038;-73
2024/02/20 08:43:16;;;;;;;31.55;12.07;;;7.70;99.90;;;;;;4974867;28;20464;-73
2024/02/20 08:45:42;;;;;;;37.40;13.40;;;7.80;99.90;;;;;;4972399;28;22921;-73
2024/02/20 08:48:09;;;;;;;33.35;12.15;;;7.80;99.90;;;;;;4974892;28;20036;-73
2024/02/20 08:50:35;;;;;;;28.95;11.73;;;7.90;99.90;;;;;;4966887;28;20037;-73
2024/02/20 08:53:07;;;;;;;35.47;12.40;;;7.90;99.90;;;;;;4984187;28;20044;-73
2024/02/20 08:55:33;;;;;;;25.67;10.80;;;7.90;99.90;;;;;;4968530;28;20033;-74
2024/02/20 08:58:00;;;;;;;43.50;14.73;;;8.00;99.90;;;;;;4987132;28;20048;-73
2024/02/20 09:00:26;;;;;;;45.33;14.75;;;8.00;99.90;;;;;;4969602;28;20397;-75
2024/02/20 09:02:54;;;;;;;50.92;16.25;;;8.00;99.90;;;;;;4986551;28;20400;-73
2024/02/20 09:05:21;;;;;;;36.72;13.05;;;8.10;99.90;;;;;;4992799;28;20048;-73
2024/02/20 09:07:47;;;;;;;36.33;13.73;;;8.10;99.90;;;;;;5008989;28;20608;-72
2024/02/20 09:10:13;;;;;;;50.00;16.30;;;8.20;99.90;;;;;;4988971;28;20349;-72
2024/02/20 09:12:40;;;;;;;48.63;14.70;;;8.30;99.90;;;;;;4978592;28;20045;-74
2024/02/20 09:15:07;;;;;;;29.88;13.77;;;8.40;99.90;;;;;;4962552;28;20056;-73
2024/02/20 09:17:33;;;;;;;27.90;12.60;;;8.40;99.90;;;;;;4962532;28;20048;-72
2024/02/20 09:20:00;;;;;;;41.80;14.10;;;8.60;99.90;;;;;;4998501;28;20041;-75
2024/02/20 09:22:27;;;;;;;34.38;12.75;;;8.70;99.90;;;;;;4965991;28;20052;-75
2024/02/20 09:24:53;;;;;;;45.58;14.60;;;8.70;99.90;;;;;;4967299;28;20030;-73
2024/02/20 09:27:20;;;;;;;28.85;12.18;;;8.80;99.90;;;;;;4974363;28;20033;-72
2024/02/20 09:29:46;;;;;;;34.15;11.35;;;8.90;99.90;;;;;;5024429;28;20060;-75
2024/02/20 09:32:13;;;;;;;32.08;11.73;;;9.00;99.90;;;;;;4959451;28;20045;-73
2024/02/20 09:34:40;;;;;;;36.78;12.10;;;9.00;99.90;;;;;;4981018;28;20030;-74
2024/02/20 09:37:06;;;;;;;42.30;14.35;;;9.00;99.90;;;;;;4967007;28;20044;-72
2024/02/20 09:39:33;;;;;;;38.75;13.50;;;9.00;99.90;;;;;;4983121;28;20044;-73
2024/02/20 09:42:06;;;;;;;38.63;12.80;;;9.00;99.90;;;;;;4981323;28;20045;-73
2024/02/20 09:44:34;;;;;;;37.58;12.77;;;9.00;99.90;;;;;;4980702;28;20028;-72
2024/02/20 09:47:02;;;;;;;51.00;13.70;;;9.00;99.90;;;;;;4984965;28;20871;-74
2024/02/20 09:49:29;;;;;;;32.75;11.45;;;9.10;99.90;;;;;;4963792;28;20040;-74
2024/02/20 09:51:58;;;;;;;33.70;10.57;;;9.10;99.90;;;;;;4960581;28;20033;-73
2024/02/20 09:54:26;;;;;;;45.85;13.75;;;9.20;99.90;;;;;;4981867;28;20044;-74
2024/02/20 09:56:55;;;;;;;37.08;12.98;;;9.30;99.90;;;;;;4987409;28;20726;-73
2024/02/20 09:59:22;;;;;;;46.65;13.32;;;9.30;99.90;;;;;;4974426;28;20395;-74
2024/02/20 10:01:50;;;;;;;42.33;12.00;;;9.40;99.90;;;;;;4989511;28;20030;-74
2024/02/20 10:04:18;;;;;;;39.50;11.82;;;9.50;99.90;;;;;;4972061;28;20041;-75
2024/02/20 10:06:44;;;;;;;33.90;11.18;;;9.50;99.90;;;;;;4975160;28;20033;-73
2024/02/20 10:09:12;;;;;;;28.70;10.68;;;9.60;99.90;;;;;;4976238;28;20496;-75
2024/02/20 10:11:40;;;;;;;35.50;11.15;;;9.60;99.90;;;;;;4999583;28;20017;-75
2024/02/20 10:14:07;;;;;;;39.78;10.90;;;9.70;99.90;;;;;;4995900;28;20025;-74
2024/02/20 10:16:33;;;;;;;36.22;10.90;;;9.80;99.90;;;;;;4959835;28;20257;-74
2024/02/20 10:19:07;;;;;;;33.42;9.82;;;9.80;99.90;;;;;;4974975;28;20044;-74
2024/02/20 10:21:35;;;;;;;39.03;11.77;;;9.90;99.90;;;;;;4973091;28;20056;-74
2024/02/20 10:24:02;;;;;;;34.15;9.82;;;10.00;99.90;;;;;;4989876;28;20037;-75
2024/02/20 10:26:34;;;;;;;34.63;10.18;;;10.00;99.90;;;;;;4988612;28;21314;-78
2024/02/20 10:29:05;;;;;;;34.42;12.02;;;10.00;99.90;;;;;;5002233;28;20036;-75
2024/02/20 10:31:32;;;;;;;36.08;11.13;;;10.10;99.90;;;;;;4990754;28;20036;-74
2024/02/20 10:33:59;;;;;;;34.97;11.18;;;10.10;99.90;;;;;;4997447;28;20076;-75
2024/02/20 10:36:26;;;;;;;35.05;9.95;;;10.20;99.90;;;;;;5023273;28;20270;-75
2024/02/20 10:39:10;;;;;;;31.00;8.85;;;10.30;99.90;;;;;;4983722;28;20548;-74
2024/02/20 10:41:37;;;;;;;35.55;10.55;;;10.30;99.90;;;;;;4957065;28;20042;-75
2024/02/20 10:44:04;;;;;;;28.08;9.23;;;10.40;99.90;;;;;;5001462;28;20037;-75
2024/02/20 10:46:40;;;;;;;28.48;9.48;;;10.50;99.90;;;;;;4974073;28;20403;-73
2024/02/20 10:49:25;;;;;;;31.65;11.18;;;10.50;99.90;;;;;;4954486;28;20045;-75
2024/02/20 10:51:54;;;;;;;32.88;10.82;;;10.50;99.90;;;;;;5019286;28;20026;-73
2024/02/20 10:54:22;;;;;;;38.08;11.50;;;10.50;99.90;;;;;;4976959;28;20044;-74
2024/02/20 10:56:49;;;;;;;39.65;11.07;;;10.50;99.90;;;;;;4998854;28;20042;-75
2024/02/20 10:59:17;;;;;;;34.67;11.13;;;10.50;99.90;;;;;;4963865;28;20034;-72
2024/02/20 11:01:43;;;;;;;32.97;10.77;;;10.50;99.90;;;;;;4988301;28;20278;-74
2024/02/20 11:04:10;;;;;;;35.10;10.10;;;10.50;99.90;;;;;;4985841;28;21400;-74
2024/02/20 11:06:39;;;;;;;28.35;11.10;;;10.50;99.90;;;;;;4987733;28;20492;-74
2024/02/20 11:09:10;;;;;;;26.52;9.85;;;10.60;99.90;;;;;;4973289;28;20042;-74
2024/02/20 11:11:36;;;;;;;31.30;9.90;;;10.60;99.90;;;;;;5002306;28;20040;-74
2024/02/20 11:14:02;;;;;;;30.77;10.45;;;10.60;99.90;;;;;;4972943;28;20409;-75
2024/02/20 11:16:34;;;;;;;29.52;10.32;;;10.60;99.90;;;;;;4997172;28;20049;-74
2024/02/20 11:19:01;;;;;;;37.45;10.75;;;10.60;99.90;;;;;;4984819;28;20033;-75
2024/02/20 11:21:32;;;;;;;29.83;10.65;;;10.60;99.90;;;;;;5014910;28;20044;-74
2024/02/20 11:24:14;;;;;;;26.13;10.30;;;10.60;99.90;;;;;;4973150;28;20388;-75
2024/02/20 11:26:44;;;;;;;24.50;8.57;;;10.70;99.90;;;;;;4992984;28;21214;-74
2024/02/20 11:29:11;;;;;;;32.25;11.20;;;10.70;99.90;;;;;;4975768;28;20403;-75
2024/02/20 11:31:37;;;;;;;34.65;10.63;;;10.70;99.90;;;;;;4974317;28;21144;-75
2024/02/20 11:34:15;;;;;;;26.98;10.55;;;10.80;99.90;;;;;;4975150;28;20045;-74
2024/02/20 11:36:45;;;;;;;23.48;10.20;;;10.80;99.90;;;;;;4988677;28;21023;-75
2024/02/20 11:39:16;;;;;;;30.67;10.32;;;10.90;99.90;;;;;;4997290;28;20037;-74
2024/02/20 11:41:44;;;;;;;26.63;9.25;;;10.90;99.90;;;;;;4997567;28;20041;-75
2024/02/20 11:44:11;;;;;;;33.70;10.40;;;10.90;99.90;;;;;;4959385;28;20052;-75
2024/02/20 11:46:43;;;;;;;30.95;10.55;;;11.00;99.90;;;;;;4969284;28;20129;-74
2024/02/20 11:49:20;;;;;;;27.60;9.65;;;11.10;99.90;;;;;;4984847;28;20045;-75
2024/02/20 11:51:46;;;;;;;24.05;9.07;;;11.20;99.90;;;;;;4986222;28;20037;-75
2024/02/20 11:54:13;;;;;;;31.33;9.75;;;11.30;99.90;;;;;;5001319;28;20040;-74
2024/02/20 11:56:39;;;;;;;32.92;10.30;;;11.40;99.90;;;;;;4973521;28;20834;-75
2024/02/20 11:59:07;;;;;;;32.13;10.13;;;11.50;99.90;;;;;;4959979;28;20316;-75
2024/02/20 12:01:37;;;;;;;34.20;11.23;;;11.50;99.90;;;;;;4999355;28;20025;-75
2024/02/20 12:04:06;;;;;;;27.70;9.15;;;11.50;99.90;;;;;;4997746;28;20032;-77
2024/02/20 12:06:35;;;;;;;30.75;10.90;;;11.60;99.90;;;;;;4967693;28;21263;-74
2024/02/20 12:09:03;;;;;;;25.25;9.30;;;11.60;99.90;;;;;;4978055;28;20033;-74
2024/02/20 12:11:30;;;;;;;29.42;8.35;;;11.60;99.90;;;;;;5003696;28;20034;-74
2024/02/20 12:13:59;;;;;;;26.80;10.48;;;11.60;99.90;;;;;;4974003;28;20033;-75
2024/02/20 12:16:29;;;;;;;30.80;9.95;;;11.70;99.90;;;;;;5006352;28;20048;-75
2024/02/20 12:18:58;;;;;;;28.27;8.93;;;11.70;99.90;;;;;;4990858;28;20037;-75
2024/02/20 12:21:26;;;;;;;25.98;8.95;;;11.80;99.90;;;;;;4990221;28;20033;-75
2024/02/20 12:23:53;;;;;;;27.38;8.95;;;11.80;99.90;;;;;;4992466;28;20709;-74
2024/02/20 12:26:21;;;;;;;33.38;10.70;;;11.80;99.90;;;;;;4994745;28;20033;-75
2024/02/20 12:28:48;;;;;;;27.33;8.95;;;11.80;99.90;;;;;;4996618;28;20029;-75
2024/02/20 12:31:21;;;;;;;29.58;8.68;;;12.00;99.90;;;;;;4990893;28;20030;-74
2024/02/20 12:33:48;;;;;;;27.40;8.93;;;12.00;99.90;;;;;;4971719;28;21646;-75
2024/02/20 12:36:15;;;;;;;24.80;9.18;;;12.10;99.90;;;;;;4990011;28;20048;-75
2024/02/20 12:38:42;;;;;;;28.35;9.02;;;12.10;99.90;;;;;;4973933;28;20025;-75
2024/02/20 12:41:08;;;;;;;24.05;7.70;;;12.10;99.90;;;;;;4991254;28;20037;-77
2024/02/20 12:43:35;;;;;;;23.00;8.68;;;12.10;99.90;;;;;;4991038;28;20606;-76
2024/02/20 12:46:02;;;;;;;26.15;8.95;;;12.20;99.90;;;;;;5021460;28;20036;-75